Keating, Oregon
Current Conditions -  °F | °C
As of 4:53 PM on Tuesday 21 Oct 2014 (Local Time) from KBKE Reporting Station
Broken Clouds Broken Clouds  
Wind Chill: 52°   Ceiling: 9000
Heat Index: 52°   Visibility: 10mi
Dew Point: 35°   Wind: 5mph
Humidity: 53%   Direction: 20°NNE
Pressure: 30.01"   Gusts: NA
Location:  44.7595°N, 117.716°W
Report Text: KBKE 212353Z AUTO 02004KT 10SM FEW055 BKN090 11/02 A3001 RMK AO2 SLP164 T01110017 10156 20111 56001
Loading
Personal Weather Stations






























Interactive Weather Map
Tropical Storm Tracking
New forecast layout! Learn more

10-Day Weather Forecast

Advertisements
Track Severe Weather on mobile